Time;durP1;ratioP1;P1;durP2;ratioP2;P2;SDS_P1;SDS_P2;PMS_P1;PMS_P2;Temp;Humidity;BMP_temperature;BMP_pressure;BME280_temperature;BME280_humidity;BME280_pressure;Samples;Min_cycle;Max_cycle;Signal;HPM_P1;HPM_P2
2022/08/05 00:00:53;;;;;;;;;;;;;;;20.34;100.00;100573.94;3046432;19;1842;-53
2022/08/05 00:01:55;;;;;;;;;;;;;;;20.32;100.00;100575.94;3046365;19;892;-54
2022/08/05 00:03:11;;;;;;;;;;;;;;;20.32;100.00;100578.66;3053111;19;840;-54
2022/08/05 00:04:16;;;;;;;;;;;;;;;20.30;100.00;100567.13;3052540;19;1007;-53
2022/08/05 00:05:22;;;;;;;;;;;;;;;20.29;100.00;100568.13;3052886;19;1013;-55
2022/08/05 00:06:47;;;;;;;;;;;;;;;20.25;100.00;100561.31;3051437;19;973;-53
2022/08/05 00:07:52;;;;;;;;;;;;;;;20.23;100.00;100567.91;3051672;19;1175;-52
2022/08/05 00:09:04;;;;;;;;;;;;;;;20.19;100.00;100567.34;3051618;19;1127;-54
2022/08/05 00:10:13;;;;;;;;;;;;;;;20.16;100.00;100567.69;3052058;19;1015;-53
2022/08/05 00:11:18;;;;;;;;;;;;;;;20.12;100.00;100577.13;3052028;19;909;-55
2022/08/05 00:12:24;;;;;;;;;;;;;;;20.10;100.00;100576.41;3051813;19;972;-52
2022/08/05 00:13:29;;;;;;;;;;;;;;;20.07;100.00;100568.59;3052348;19;868;-53
2022/08/05 00:14:40;;;;;;;;;;;;;;;20.04;100.00;100567.06;3052273;19;963;-53
2022/08/05 00:15:44;;;;;;;;;;;;;;;20.01;100.00;100563.78;3051948;19;1035;-53
2022/08/05 00:17:03;;;;;;;;;;;;;;;19.96;100.00;100569.66;3051889;19;983;-53
2022/08/05 00:18:20;;;;;;;;;;;;;;;19.91;100.00;100563.00;3043819;19;1070;-53
2022/08/05 00:19:26;;;;;;;;;;;;;;;19.78;100.00;100552.53;3043187;19;971;-52
2022/08/05 00:20:41;;;;;;;;;;;;;;;19.77;100.00;100567.94;3043766;19;1873;-53
2022/08/05 00:21:45;;;;;;;;;;;;;;;19.70;100.00;100552.44;3046643;19;995;-54
2022/08/05 00:22:47;;;;;;;;;;;;;;;19.63;100.00;100559.47;3046991;19;904;-54
2022/08/05 00:24:04;;;;;;;;;;;;;;;19.55;100.00;100562.09;3046643;19;1143;-54
2022/08/05 00:25:11;;;;;;;;;;;;;;;19.48;100.00;100559.06;3050974;19;1324;-55
2022/08/05 00:26:19;;;;;;;;;;;;;;;19.41;100.00;100566.09;3052845;19;1030;-54
2022/08/05 00:27:22;;;;;;;;;;;;;;;19.33;100.00;100553.28;3052645;19;922;-53
2022/08/05 00:28:39;;;;;;;;;;;;;;;19.24;100.00;100548.78;3052410;19;1155;-52
2022/08/05 00:29:44;;;;;;;;;;;;;;;19.19;100.00;100547.53;3052359;19;1050;-54
2022/08/05 00:30:46;;;;;;;;;;;;;;;19.13;100.00;100550.81;3051995;19;906;-54
2022/08/05 00:31:56;;;;;;;;;;;;;;;19.05;100.00;100544.31;3051067;19;1101;-53
2022/08/05 00:33:15;;;;;;;;;;;;;;;18.98;100.00;100542.31;3052441;19;986;-52
2022/08/05 00:34:41;;;;;;;;;;;;;;;18.97;100.00;100546.00;3052150;19;947;-52
2022/08/05 00:36:03;;;;;;;;;;;;;;;18.92;100.00;100548.34;3052131;19;1292;-54
2022/08/05 00:37:28;;;;;;;;;;;;;;;18.93;100.00;100548.19;3052203;19;991;-54
2022/08/05 00:38:50;;;;;;;;;;;;;;;18.99;100.00;100542.19;3055176;19;959;-54
2022/08/05 00:39:55;;;;;;;;;;;;;;;19.03;100.00;100543.59;3051348;19;909;-54
2022/08/05 00:40:59;;;;;;;;;;;;;;;19.04;100.00;100542.59;3045837;19;1855;-52
2022/08/05 00:42:04;;;;;;;;;;;;;;;19.06;100.00;100546.00;3046264;19;1008;-53
2022/08/05 00:43:09;;;;;;;;;;;;;;;19.08;100.00;100547.72;3048169;19;879;-54
2022/08/05 00:44:18;;;;;;;;;;;;;;;19.06;100.00;100548.72;3049627;19;885;-54
2022/08/05 00:45:23;;;;;;;;;;;;;;;19.05;100.00;100541.59;3047958;19;876;-53
2022/08/05 00:46:46;;;;;;;;;;;;;;;19.06;100.00;100551.41;3048694;19;1382;-53
2022/08/05 00:47:54;;;;;;;;;;;;;;;19.04;100.00;100537.19;3055275;19;878;-52
2022/08/05 00:49:08;;;;;;;;;;;;;;;19.04;100.00;100542.59;3054727;19;1299;-54
2022/08/05 00:50:15;;;;;;;;;;;;;;;19.06;100.00;100547.88;3054436;19;1051;-54
2022/08/05 00:51:20;;;;;;;;;;;;;;;19.08;100.00;100535.88;3055034;19;916;-54
2022/08/05 00:52:42;;;;;;;;;;;;;;;19.10;100.00;100545.69;3054895;19;900;-53
2022/08/05 00:53:49;;;;;;;;;;;;;;;19.11;100.00;100547.41;3055135;19;1019;-53
2022/08/05 00:55:04;;;;;;;;;;;;;;;19.14;100.00;100539.84;3054983;19;1743;-54
2022/08/05 00:56:08;;;;;;;;;;;;;;;19.16;100.00;100542.41;3054870;19;959;-54
2022/08/05 00:57:12;;;;;;;;;;;;;;;19.15;100.00;100538.84;3055213;19;901;-53
2022/08/05 00:58:18;;;;;;;;;;;;;;;19.16;100.00;100539.72;3054077;19;879;-53
2022/08/05 00:59:20;;;;;;;;;;;;;;;19.14;100.00;100541.69;3053886;19;1165;-53
2022/08/05 01:00:24;;;;;;;;;;;;;;;19.12;100.00;100530.16;3053659;19;1634;-54
2022/08/05 01:01:26;;;;;;;;;;;;;;;19.08;100.00;100541.28;3054691;19;1830;-54
2022/08/05 01:02:51;;;;;;;;;;;;;;;19.06;100.00;100526.22;3047624;19;938;-53
2022/08/05 01:03:53;;;;;;;;;;;;;;;19.01;100.00;100531.22;3045766;19;1233;-55
2022/08/05 01:04:58;;;;;;;;;;;;;;;18.97;100.00;100525.22;3045942;19;1754;-53
2022/08/05 01:05:59;;;;;;;;;;;;;;;18.94;100.00;100528.25;3048548;19;1330;-55
2022/08/05 01:07:05;;;;;;;;;;;;;;;18.91;100.00;100525.84;3049092;19;1122;-53
2022/08/05 01:08:14;;;;;;;;;;;;;;;18.89;100.00;100538.66;3050085;19;1258;-53
2022/08/05 01:09:38;;;;;;;;;;;;;;;18.87;100.00;100529.81;3050307;19;1408;-54
2022/08/05 01:10:42;;;;;;;;;;;;;;;18.88;100.00;100523.41;3054516;19;950;-53
2022/08/05 01:11:56;;;;;;;;;;;;;;;18.88;100.00;100530.69;3054339;19;930;-53
2022/08/05 01:13:06;;;;;;;;;;;;;;;18.89;100.00;100517.00;3053845;19;932;-56
2022/08/05 01:14:26;;;;;;;;;;;;;;;18.90;100.00;100518.72;3053286;19;968;-53
2022/08/05 01:15:31;;;;;;;;;;;;;;;18.91;100.00;100523.13;3053510;19;1019;-53
2022/08/05 01:16:45;;;;;;;;;;;;;;;18.93;100.00;100523.84;3054187;19;887;-54
2022/08/05 01:17:51;;;;;;;;;;;;;;;18.93;100.00;100517.59;3053362;19;1031;-53
2022/08/05 01:18:58;;;;;;;;;;;;;;;18.92;100.00;100519.44;3053858;19;968;-54
2022/08/05 01:20:22;;;;;;;;;;;;;;;18.94;100.00;100520.16;3053903;19;1003;-54
2022/08/05 01:21:33;;;;;;;;;;;;;;;18.95;100.00;100526.41;3053834;19;1849;-54
2022/08/05 01:22:47;;;;;;;;;;;;;;;18.95;100.00;100516.44;3054280;19;944;-54
2022/08/05 01:23:56;;;;;;;;;;;;;;;18.95;100.00;100511.03;3054000;19;963;-54
2022/08/05 01:25:23;;;;;;;;;;;;;;;18.97;100.00;100525.22;3049320;19;971;-54
2022/08/05 01:27:01;;;;;;;;;;;;;;;18.97;100.00;100514.41;3045820;19;868;-53
2022/08/05 01:28:22;;;;;;;;;;;;;;;18.99;100.00;100506.16;3047105;19;992;-53
2022/08/05 01:29:30;;;;;;;;;;;;;;;18.99;100.00;100517.84;3047896;19;877;-54
2022/08/05 01:30:35;;;;;;;;;;;;;;;18.98;100.00;100516.13;3048857;19;967;-53
2022/08/05 01:31:42;;;;;;;;;;;;;;;18.98;100.00;100508.00;3046468;19;1212;-54
2022/08/05 01:32:45;;;;;;;;;;;;;;;18.99;100.00;100507.00;3053447;19;939;-54
2022/08/05 01:33:52;;;;;;;;;;;;;;;18.98;100.00;100516.13;3053538;19;1154;-52
2022/08/05 01:34:56;;;;;;;;;;;;;;;18.98;100.00;100516.13;3054180;19;933;-53
2022/08/05 01:36:01;;;;;;;;;;;;;;;18.96;100.00;100506.44;3053299;19;1667;-56
2022/08/05 01:37:07;;;;;;;;;;;;;;;18.97;100.00;100509.00;3052815;19;948;-54
2022/08/05 01:38:12;;;;;;;;;;;;;;;18.98;100.00;100509.88;3053037;19;932;-53
2022/08/05 01:39:29;;;;;;;;;;;;;;;18.98;100.00;100515.28;3053492;19;883;-53
2022/08/05 01:40:47;;;;;;;;;;;;;;;18.95;100.00;100505.63;3054214;19;890;-54
2022/08/05 01:41:52;;;;;;;;;;;;;;;18.94;100.00;100503.91;3053284;19;1841;-54
2022/08/05 01:42:54;;;;;;;;;;;;;;;18.95;100.00;100511.03;3054286;19;976;-53
2022/08/05 01:43:59;;;;;;;;;;;;;;;18.94;100.00;100505.78;3053306;19;1691;-53
2022/08/05 01:45:01;;;;;;;;;;;;;;;18.93;100.00;100507.63;3052905;19;1244;-53
2022/08/05 01:46:06;;;;;;;;;;;;;;;18.94;100.00;100512.03;3053480;19;910;-54
2022/08/05 01:47:31;;;;;;;;;;;;;;;18.94;100.00;100503.91;3050001;19;1371;-54
2022/08/05 01:48:40;;;;;;;;;;;;;;;18.95;100.00;100504.78;3044059;19;1007;-53
2022/08/05 01:49:44;;;;;;;;;;;;;;;18.96;100.00;100496.47;3044799;19;901;-54
2022/08/05 01:51:03;;;;;;;;;;;;;;;18.96;100.00;100501.88;3047033;19;1010;-54
2022/08/05 01:52:15;;;;;;;;;;;;;;;18.98;100.00;100497.19;3048024;19;1419;-53
2022/08/05 01:53:20;;;;;;;;;;;;;;;18.97;100.00;100492.78;3048711;19;1357;-52
2022/08/05 01:54:48;;;;;;;;;;;;;;;18.97;100.00;100497.34;3049104;19;892;-54
2022/08/05 01:55:54;;;;;;;;;;;;;;;18.96;100.00;100496.47;3053810;19;992;-53
2022/08/05 01:57:01;;;;;;;;;;;;;;;18.97;100.00;100497.34;3053029;19;956;-52
2022/08/05 01:58:23;;;;;;;;;;;;;;;18.97;100.00;100492.78;3052818;19;894;-52
2022/08/05 01:59:48;;;;;;;;;;;;;;;18.96;100.00;100485.66;3052997;19;971;-53
2022/08/05 02:00:50;;;;;;;;;;;;;;;18.95;100.00;100492.09;3053186;19;1034;-54
2022/08/05 02:01:54;;;;;;;;;;;;;;;18.94;100.00;100495.81;3053957;19;1853;-52
2022/08/05 02:03:00;;;;;;;;;;;;;;;18.93;100.00;100496.81;3054024;19;993;-54
2022/08/05 02:04:07;;;;;;;;;;;;;;;18.93;100.00;100491.41;3052709;19;2130;-54
2022/08/05 02:05:11;;;;;;;;;;;;;;;18.92;100.00;100491.53;3052609;19;944;-54
2022/08/05 02:06:18;;;;;;;;;;;;;;;18.92;100.00;100494.25;3052942;19;873;-54
2022/08/05 02:07:38;;;;;;;;;;;;;;;18.90;100.00;100491.69;3052859;19;980;-52
2022/08/05 02:08:43;;;;;;;;;;;;;;;18.90;100.00;100486.28;3052926;19;1265;-54
2022/08/05 02:09:59;;;;;;;;;;;;;;;18.92;100.00;100495.09;3047950;19;975;-54
2022/08/05 02:11:07;;;;;;;;;;;;;;;18.90;100.00;100488.97;3043952;19;1655;-53
2022/08/05 02:12:18;;;;;;;;;;;;;;;18.90;100.00;100490.81;3044465;19;971;-54
2022/08/05 02:13:27;;;;;;;;;;;;;;;18.89;100.00;100489.97;3046122;19;896;-53
2022/08/05 02:14:54;;;;;;;;;;;;;;;18.87;100.00;100481.16;3048396;19;1367;-52
2022/08/05 02:16:01;;;;;;;;;;;;;;;18.88;100.00;100484.72;3047114;19;939;-54
2022/08/05 02:17:07;;;;;;;;;;;;;;;18.88;100.00;100482.84;3048484;19;1126;-53
2022/08/05 02:18:20;;;;;;;;;;;;;;;18.87;100.00;100486.56;3053344;19;908;-53
2022/08/05 02:19:39;;;;;;;;;;;;;;;18.86;100.00;100482.16;3052505;19;1214;-53
2022/08/05 02:20:55;;;;;;;;;;;;;;;18.86;100.00;100479.44;3053365;19;1003;-53
2022/08/05 02:22:15;;;;;;;;;;;;;;;18.86;100.00;100476.75;3052306;19;1023;-52
2022/08/05 02:23:30;;;;;;;;;;;;;;;18.86;100.00;100474.03;3053140;19;1389;-54
2022/08/05 02:24:38;;;;;;;;;;;;;;;18.85;100.00;100472.31;3052690;19;1175;-53
2022/08/05 02:25:42;;;;;;;;;;;;;;;18.84;100.00;100473.31;3052648;19;1268;-54
2022/08/05 02:26:54;;;;;;;;;;;;;;;18.84;100.00;100470.63;3053073;19;935;-52
2022/08/05 02:27:56;;;;;;;;;;;;;;;18.84;100.00;100467.91;3053062;19;955;-52
2022/08/05 02:29:03;;;;;;;;;;;;;;;18.84;100.00;100469.78;3052651;19;1035;-54
2022/08/05 02:30:05;;;;;;;;;;;;;;;18.83;100.00;100474.34;3052260;19;952;-53
2022/08/05 02:31:13;;;;;;;;;;;;;;;18.85;100.00;100466.06;3052431;19;1023;-54
2022/08/05 02:32:16;;;;;;;;;;;;;;;18.81;100.00;100460.13;3049493;19;900;-54
2022/08/05 02:33:32;;;;;;;;;;;;;;;18.83;100.00;100460.84;3045475;19;860;-53
2022/08/05 02:34:42;;;;;;;;;;;;;;;18.86;100.00;100473.19;3044170;19;809;-54
2022/08/05 02:35:55;;;;;;;;;;;;;;;18.87;100.00;100467.63;3045996;19;932;-54
2022/08/05 02:37:05;;;;;;;;;;;;;;;18.89;100.00;100457.53;3046835;19;908;-54
2022/08/05 02:38:07;;;;;;;;;;;;;;;18.89;100.00;100462.06;3047038;19;988;-54
2022/08/05 02:39:12;;;;;;;;;;;;;;;18.92;100.00;100456.38;3047128;19;889;-54
2022/08/05 02:40:17;;;;;;;;;;;;;;;18.95;100.00;100456.09;3052743;19;1653;-53
2022/08/05 02:41:22;;;;;;;;;;;;;;;18.94;100.00;100460.66;3052763;19;996;-52
2022/08/05 02:42:37;;;;;;;;;;;;;;;18.93;100.00;100464.34;3052468;19;1846;-53
2022/08/05 02:43:41;;;;;;;;;;;;;;;18.92;100.00;100456.38;3051951;19;1681;-52
2022/08/05 02:45:06;;;;;;;;;;;;;;;18.92;100.00;100468.06;3053191;19;944;-54
2022/08/05 02:46:07;;;;;;;;;;;;;;;18.89;100.00;100457.53;3053057;19;955;-55
2022/08/05 02:47:19;;;;;;;;;;;;;;;18.88;100.00;100466.63;3052446;19;927;-54
2022/08/05 02:48:22;;;;;;;;;;;;;;;18.86;100.00;100456.97;3052627;19;932;-53
2022/08/05 02:49:33;;;;;;;;;;;;;;;18.85;100.00;100466.06;3052353;19;903;-52
2022/08/05 02:50:37;;;;;;;;;;;;;;;18.81;100.00;100457.41;3052425;19;982;-53
2022/08/05 02:51:47;;;;;;;;;;;;;;;18.80;100.00;100450.31;3052307;19;952;-53
2022/08/05 02:53:05;;;;;;;;;;;;;;;18.78;100.00;100455.00;3052797;19;901;-54
2022/08/05 02:54:15;;;;;;;;;;;;;;;18.78;100.00;100454.16;3053134;19;1023;-52
2022/08/05 02:55:36;;;;;;;;;;;;;;;18.76;100.00;100457.00;3043812;19;1180;-53
2022/08/05 02:57:01;;;;;;;;;;;;;;;18.76;100.00;100446.19;3043374;19;820;-55
2022/08/05 02:58:05;;;;;;;;;;;;;;;18.75;100.00;100444.47;3046179;19;958;-53
2022/08/05 02:59:15;;;;;;;;;;;;;;;18.76;100.00;100448.88;3045753;19;960;-53
2022/08/05 03:00:19;;;;;;;;;;;;;;;18.76;100.00;100438.06;3045727;19;955;-54
2022/08/05 03:01:26;;;;;;;;;;;;;;;18.75;100.00;100449.88;3046604;19;860;-53
2022/08/05 03:02:29;;;;;;;;;;;;;;;18.75;100.00;100451.75;3051432;19;981;-54
2022/08/05 03:03:34;;;;;;;;;;;;;;;18.78;100.00;100454.16;3051650;19;1864;-53
2022/08/05 03:04:56;;;;;;;;;;;;;;;18.69;100.00;100435.13;3052477;19;968;-52
2022/08/05 03:06:01;;;;;;;;;;;;;;;18.77;100.00;100444.34;3052954;19;1620;-54
2022/08/05 03:07:23;;;;;;;;;;;;;;;18.81;100.00;100438.50;3052110;19;953;-54
2022/08/05 03:08:47;;;;;;;;;;;;;;;18.84;100.00;100446.28;3052430;19;999;-53
2022/08/05 03:09:55;;;;;;;;;;;;;;;18.88;100.00;100442.28;3051339;19;999;-52
2022/08/05 03:11:00;;;;;;;;;;;;;;;18.89;100.00;100449.41;3051156;19;1653;-53
2022/08/05 03:12:30;;;;;;;;;;;;;;;18.89;100.00;100449.41;3052882;19;999;-53
2022/08/05 03:13:33;;;;;;;;;;;;;;;18.88;100.00;100444.16;3052081;19;924;-53
2022/08/05 03:14:57;;;;;;;;;;;;;;;18.92;100.00;100449.13;3053242;19;934;-55
2022/08/05 03:15:59;;;;;;;;;;;;;;;18.93;100.00;100450.81;3052584;19;1210;-53
2022/08/05 03:17:03;;;;;;;;;;;;;;;18.96;100.00;100445.09;3050494;19;902;-53
2022/08/05 03:18:09;;;;;;;;;;;;;;;18.98;100.00;100448.50;3044134;19;933;-55
2022/08/05 03:19:14;;;;;;;;;;;;;;;18.99;100.00;100444.81;3044336;19;927;-54
2022/08/05 03:20:34;;;;;;;;;;;;;;;19.02;100.00;100446.38;3046194;19;1364;-53
2022/08/05 03:21:39;;;;;;;;;;;;;;;19.04;100.00;100442.50;3047506;19;876;-55
2022/08/05 03:22:49;;;;;;;;;;;;;;;19.08;100.00;100444.94;3046987;19;1079;-53
2022/08/05 03:23:53;;;;;;;;;;;;;;;19.10;100.00;100442.91;3046439;19;1843;-54
2022/08/05 03:24:57;;;;;;;;;;;;;;;19.10;100.00;100437.50;3051326;19;1220;-53
2022/08/05 03:26:14;;;;;;;;;;;;;;;19.13;100.00;100448.00;3051663;19;894;-53
2022/08/05 03:27:32;;;;;;;;;;;;;;;19.16;100.00;100443.16;3051672;19;956;-53
2022/08/05 03:28:57;;;;;;;;;;;;;;;19.22;100.00;100441.69;3051528;19;1267;-54
2022/08/05 03:29:59;;;;;;;;;;;;;;;19.26;100.00;100448.50;3052535;19;1038;-53
2022/08/05 03:31:12;;;;;;;;;;;;;;;19.28;100.00;100452.78;3050197;19;1128;-53
2022/08/05 03:32:34;;;;;;;;;;;;;;;19.34;100.00;100451.31;3051067;19;967;-56
2022/08/05 03:33:38;;;;;;;;;;;;;;;19.38;100.00;100452.72;3052014;19;844;-52
2022/08/05 03:34:53;;;;;;;;;;;;;;;19.43;100.00;100450.41;3050979;19;943;-54
2022/08/05 03:35:58;;;;;;;;;;;;;;;19.49;100.00;100454.38;3050489;19;920;-53
2022/08/05 03:37:04;;;;;;;;;;;;;;;19.57;100.00;100449.91;3050589;19;952;-52
2022/08/05 03:38:06;;;;;;;;;;;;;;;19.68;100.00;100454.28;3050041;19;1441;-54
2022/08/05 03:39:10;;;;;;;;;;;;;;;19.77;100.00;100458.75;3050152;19;978;-54
2022/08/05 03:40:21;;;;;;;;;;;;;;;19.82;100.00;100463.69;3043991;19;876;-53
2022/08/05 03:41:35;;;;;;;;;;;;;;;19.85;100.00;100461.53;3044015;19;1638;-53
2022/08/05 03:42:47;;;;;;;;;;;;;;;20.13;100.00;100465.00;3044622;19;781;-55
2022/08/05 03:43:55;;;;;;;;;;;;;;;20.84;100.00;100465.72;3045966;19;1873;-54
2022/08/05 03:45:11;;;;;;;;;;;;;;;21.79;100.00;100491.72;3046293;19;1052;-54
2022/08/05 03:46:26;;;;;;;;;;;;;;;22.50;100.00;100493.84;3047329;19;1465;-54
2022/08/05 03:47:33;;;;;;;;;;;;;;;23.11;100.00;100497.84;3053183;19;853;-55
2022/08/05 03:48:44;;;;;;;;;;;;;;;23.68;100.00;100500.34;3052913;19;990;-54
2022/08/05 03:49:47;;;;;;;;;;;;;;;24.17;100.00;100517.22;3053526;19;1006;-56
2022/08/05 03:51:14;;;;;;;;;;;;;;;24.67;100.00;100519.41;3053392;19;932;-53
2022/08/05 03:52:56;;;;;;;;;;;;;;;25.37;100.00;100524.47;3024460;19;1829;-53
2022/08/05 03:54:30;;;;;;;;;;;;;;;26.05;100.00;100531.44;3054215;19;1486;-56
2022/08/05 03:55:56;;;;;;;;;;;;;;;26.62;100.00;100533.28;3056299;19;887;-54
2022/08/05 03:57:16;;;;;;;;;;;;;;;27.10;100.00;100541.69;3056308;19;1038;-54
2022/08/05 03:58:18;;;;;;;;;;;;;;;27.46;100.00;100541.50;3055950;19;952;-55
2022/08/05 03:59:30;;;;;;;;;;;;;;;27.79;100.00;100547.16;3056108;19;1092;-54
2022/08/05 04:00:52;;;;;;;;;;;;;;;28.22;99.98;100543.09;3056299;19;888;-55
2022/08/05 04:01:57;;;;;;;;;;;;;;;28.55;96.63;100553.28;3056167;19;872;-53
2022/08/05 04:03:01;;;;;;;;;;;;;;;28.86;94.24;100553.53;3056343;19;931;-56
2022/08/05 04:04:07;;;;;;;;;;;;;;;29.21;91.42;100547.78;3055430;19;1857;-54
2022/08/05 04:05:11;;;;;;;;;;;;;;;29.51;88.28;100548.16;3056275;19;877;-55
2022/08/05 04:06:16;;;;;;;;;;;;;;;29.76;85.64;100556.53;3055704;19;1225;-53
2022/08/05 04:07:24;;;;;;;;;;;;;;;30.04;83.04;100551.56;3056323;19;959;-55
2022/08/05 04:08:29;;;;;;;;;;;;;;;30.28;80.20;100556.31;3055917;19;1018;-54
2022/08/05 04:09:40;;;;;;;;;;;;;;;30.54;78.66;100551.72;3056250;19;947;-52
2022/08/05 04:10:54;;;;;;;;;;;;;;;30.82;76.91;100557.59;3056449;19;1058;-53
2022/08/05 04:12:00;;;;;;;;;;;;;;;31.05;75.23;100552.31;3056885;19;938;-53
2022/08/05 04:13:02;;;;;;;;;;;;;;;31.30;73.96;100560.56;3057058;19;1156;-53
2022/08/05 04:14:07;;;;;;;;;;;;;;;31.57;72.45;100561.13;3059198;19;816;-55
2022/08/05 04:15:18;;;;;;;;;;;;;;;31.85;70.63;100558.69;3059952;19;952;-54
2022/08/05 04:16:27;;;;;;;;;;;;;;;32.12;69.66;100563.88;3060020;19;871;-55
2022/08/05 04:17:33;;;;;;;;;;;;;;;32.40;68.51;100561.34;3058923;19;1054;-54
2022/08/05 04:18:57;;;;;;;;;;;;;;;32.73;66.47;100568.28;3059374;19;877;-54
2022/08/05 04:20:00;;;;;;;;;;;;;;;32.93;65.23;100568.81;3059952;19;944;-56
2022/08/05 04:21:06;;;;;;;;;;;;;;;33.13;64.50;100561.00;3059347;19;952;-56
2022/08/05 04:22:11;;;;;;;;;;;;;;;33.34;63.87;100567.88;3060114;19;915;-54
2022/08/05 04:23:24;;;;;;;;;;;;;;;33.54;62.74;100565.56;3054530;19;876;-55
2022/08/05 04:24:49;;;;;;;;;;;;;;;33.86;61.85;100559.63;3055861;19;904;-55
2022/08/05 04:25:53;;;;;;;;;;;;;;;34.08;61.21;100570.84;3054316;19;1019;-56
2022/08/05 04:27:04;;;;;;;;;;;;;;;34.26;60.41;100573.47;3054427;19;995;-55
2022/08/05 04:28:08;;;;;;;;;;;;;;;34.45;59.71;100561.06;3055386;19;975;-55
2022/08/05 04:29:15;;;;;;;;;;;;;;;34.61;59.16;100567.75;3055074;19;853;-55
2022/08/05 04:30:17;;;;;;;;;;;;;;;34.75;59.02;100568.25;3055370;19;991;-53
2022/08/05 04:31:22;;;;;;;;;;;;;;;34.91;58.08;100572.97;3055348;19;945;-55
2022/08/05 04:32:39;;;;;;;;;;;;;;;35.04;57.25;100572.63;3046909;19;1674;-57
2022/08/05 04:33:45;;;;;;;;;;;;;;;35.13;57.30;100573.91;3047144;19;947;-55
2022/08/05 04:35:09;;;;;;;;;;;;;;;35.29;56.61;100575.84;3047195;19;1299;-54
2022/08/05 04:36:23;;;;;;;;;;;;;;;35.38;56.32;100568.75;3049943;19;936;-54
2022/08/05 04:37:44;;;;;;;;;;;;;;;35.49;55.33;100571.69;3049973;19;1031;-56
2022/08/05 04:39:09;;;;;;;;;;;;;;;35.58;54.99;100565.44;3050095;19;968;-55
2022/08/05 04:40:13;;;;;;;;;;;;;;;35.71;54.98;100572.53;3055241;19;943;-54
2022/08/05 04:41:22;;;;;;;;;;;;;;;35.69;54.34;100558.06;3054701;19;934;-56
2022/08/05 04:42:39;;;;;;;;;;;;;;;35.82;54.13;100568.81;3055225;19;1382;-55
2022/08/05 04:43:44;;;;;;;;;;;;;;;35.98;53.91;100564.28;3054954;19;945;-54
2022/08/05 04:44:52;;;;;;;;;;;;;;;36.07;53.85;100560.78;3054552;19;1843;-54
2022/08/05 04:45:57;;;;;;;;;;;;;;;36.16;53.63;100560.31;3054003;19;953;-55
2022/08/05 04:46:59;;;;;;;;;;;;;;;36.25;52.79;100565.16;3054094;19;982;-54
2022/08/05 04:48:14;;;;;;;;;;;;;;;36.33;52.72;100559.16;3055586;19;793;-54
2022/08/05 04:49:30;;;;;;;;;;;;;;;36.38;52.29;100564.75;3055778;19;958;-54
2022/08/05 04:50:55;;;;;;;;;;;;;;;36.39;51.89;100557.25;3054851;19;1011;-55
2022/08/05 04:52:04;;;;;;;;;;;;;;;36.37;52.05;100556.66;3055267;19;892;-53
2022/08/05 04:53:11;;;;;;;;;;;;;;;36.34;52.15;100557.22;3055518;19;998;-53
2022/08/05 04:54:14;;;;;;;;;;;;;;;36.29;52.23;100557.16;3052704;19;1500;-54
2022/08/05 04:55:18;;;;;;;;;;;;;;;36.21;52.36;100557.59;3046660;19;1665;-53
2022/08/05 04:56:43;;;;;;;;;;;;;;;36.06;53.17;100553.56;3046733;19;964;-53
2022/08/05 04:57:45;;;;;;;;;;;;;;;36.00;53.21;100554.56;3048040;19;1433;-55
2022/08/05 04:58:54;;;;;;;;;;;;;;;35.89;53.52;100557.50;3050106;19;1268;-54
2022/08/05 04:59:56;;;;;;;;;;;;;;;35.75;53.75;100554.28;3049345;19;1082;-56
2022/08/05 05:01:02;;;;;;;;;;;;;;;35.58;54.11;100564.59;3049599;19;1004;-55
2022/08/05 05:02:05;;;;;;;;;;;;;;;35.29;54.72;100563.88;3051015;19;1084;-55
2022/08/05 05:03:29;;;;;;;;;;;;;;;34.59;56.75;100543.03;3055217;19;888;-55
2022/08/05 05:04:42;;;;;;;;;;;;;;;33.09;59.60;100547.91;3054236;19;1843;-54
2022/08/05 05:05:52;;;;;;;;;;;;;;;31.87;64.33;100543.81;3055047;19;885;-53
2022/08/05 05:07:17;;;;;;;;;;;;;;;30.77;68.49;100544.53;3055341;19;869;-53
2022/08/05 05:08:32;;;;;;;;;;;;;;;30.06;72.93;100543.94;3054790;19;1039;-53
2022/08/05 05:09:34;;;;;;;;;;;;;;;29.54;75.81;100534.81;3054885;19;975;-53
2022/08/05 05:10:44;;;;;;;;;;;;;;;29.12;78.57;100543.56;3054486;19;931;-53
2022/08/05 05:12:00;;;;;;;;;;;;;;;28.61;82.19;100541.47;3054704;19;972;-55
2022/08/05 05:13:06;;;;;;;;;;;;;;;28.27;84.75;100546.06;3054310;19;1003;-53
2022/08/05 05:14:08;;;;;;;;;;;;;;;27.93;88.10;100536.03;3054627;19;968;-56
2022/08/05 05:15:19;;;;;;;;;;;;;;;27.64;90.56;100543.72;3054696;19;1007;-53
2022/08/05 05:16:41;;;;;;;;;;;;;;;27.27;94.59;100543.09;3053769;19;975;-56
2022/08/05 05:17:47;;;;;;;;;;;;;;;27.06;97.42;100545.88;3046874;19;913;-53
2022/08/05 05:18:58;;;;;;;;;;;;;;;26.81;100.00;100543.56;3045976;19;1176;-55
2022/08/05 05:20:22;;;;;;;;;;;;;;;26.59;100.00;100544.63;3048005;19;1009;-54
2022/08/05 05:21:32;;;;;;;;;;;;;;;26.43;100.00;100547.66;3048326;19;1688;-55
2022/08/05 05:22:34;;;;;;;;;;;;;;;26.29;100.00;100548.56;3049254;19;1021;-54
2022/08/05 05:23:43;;;;;;;;;;;;;;;26.12;100.00;100537.81;3045921;19;999;-56
2022/08/05 05:25:03;;;;;;;;;;;;;;;25.98;100.00;100546.06;3053602;19;1845;-54
2022/08/05 05:26:20;;;;;;;;;;;;;;;25.84;100.00;100550.56;3055012;19;925;-55
2022/08/05 05:27:33;;;;;;;;;;;;;;;25.74;100.00;100544.53;3054609;19;936;-53
2022/08/05 05:28:49;;;;;;;;;;;;;;;25.64;100.00;100543.97;3055210;19;805;-52
2022/08/05 05:29:50;;;;;;;;;;;;;;;25.59;100.00;100540.97;3054150;19;900;-54
2022/08/05 05:31:08;;;;;;;;;;;;;;;25.51;100.00;100544.63;3054467;19;912;-52
2022/08/05 05:32:10;;;;;;;;;;;;;;;25.46;100.00;100539.75;3053799;19;1095;-53
2022/08/05 05:33:18;;;;;;;;;;;;;;;25.43;100.00;100540.13;3051663;19;952;-56
2022/08/05 05:34:24;;;;;;;;;;;;;;;25.41;100.00;100538.59;3053093;19;952;-53
2022/08/05 05:35:30;;;;;;;;;;;;;;;25.37;100.00;100540.00;3052164;19;976;-55
2022/08/05 05:36:38;;;;;;;;;;;;;;;25.34;100.00;100533.06;3052915;19;1022;-55
2022/08/05 05:37:49;;;;;;;;;;;;;;;25.32;100.00;100546.06;3052983;19;1697;-53
2022/08/05 05:39:02;;;;;;;;;;;;;;;25.31;100.00;100544.38;3053390;19;1294;-52
2022/08/05 05:40:08;;;;;;;;;;;;;;;25.30;100.00;100545.41;3045295;19;976;-56
2022/08/05 05:41:12;;;;;;;;;;;;;;;25.32;100.00;100539.75;3044818;19;1004;-55
2022/08/05 05:42:19;;;;;;;;;;;;;;;25.30;100.00;100541.81;3044820;19;1025;-53
2022/08/05 05:43:21;;;;;;;;;;;;;;;25.29;100.00;100549.16;3047799;19;1027;-55
2022/08/05 05:44:46;;;;;;;;;;;;;;;25.29;100.00;100540.13;3049348;19;950;-52
2022/08/05 05:45:48;;;;;;;;;;;;;;;25.30;100.00;100548.13;3049027;19;1838;-54
2022/08/05 05:46:52;;;;;;;;;;;;;;;25.29;100.00;100540.97;3050259;19;1646;-56
2022/08/05 05:47:57;;;;;;;;;;;;;;;25.32;100.00;100540.59;3054451;19;958;-55
2022/08/05 05:49:10;;;;;;;;;;;;;;;25.21;100.00;100521.94;3054356;19;902;-55
2022/08/05 05:50:23;;;;;;;;;;;;;;;25.36;100.00;100535.59;3054191;19;955;-55
2022/08/05 05:51:29;;;;;;;;;;;;;;;25.36;100.00;100541.91;3053749;19;983;-54
2022/08/05 05:52:50;;;;;;;;;;;;;;;25.33;100.00;100536.84;3052958;19;938;-57
2022/08/05 05:53:56;;;;;;;;;;;;;;;25.36;100.00;100541.03;3053686;19;1008;-57
2022/08/05 05:55:04;;;;;;;;;;;;;;;25.34;100.00;100541.25;3052107;19;911;-56
2022/08/05 05:56:19;;;;;;;;;;;;;;;25.41;100.00;100544.91;3052800;19;1126;-56
2022/08/05 05:57:36;;;;;;;;;;;;;;;25.41;100.00;100538.59;3052805;19;903;-54
2022/08/05 05:58:55;;;;;;;;;;;;;;;25.42;100.00;100535.69;3052255;19;1369;-56
2022/08/05 06:00:05;;;;;;;;;;;;;;;25.44;100.00;100533.63;3052871;19;927;-56
2022/08/05 06:01:16;;;;;;;;;;;;;;;25.47;100.00;100544.19;3051982;19;1058;-56
2022/08/05 06:02:23;;;;;;;;;;;;;;;25.43;100.00;100526.47;3046879;19;936;-54
2022/08/05 06:03:40;;;;;;;;;;;;;;;25.49;100.00;100528.41;3044562;19;947;-57
2022/08/05 06:05:02;;;;;;;;;;;;;;;25.55;100.00;100528.72;3045240;19;955;-57
2022/08/05 06:06:13;;;;;;;;;;;;;;;25.51;100.00;100519.19;3047782;19;939;-58
2022/08/05 06:07:15;;;;;;;;;;;;;;;25.63;100.00;100536.81;3047741;19;956;-56